Observations for QUIMPER PLUGUFF, France (LFRQ)

LFRQ 220730Z AUTO 17010G23KT 140V200 9999 DZ FEW023 SCT030 BKN037 14/12 Q1020 BECMG 4000 -RA BKN012 OVC040  
LFRQ 220700Z AUTO 16005KT 130V190 9999 FEW022 SCT048 OVC060 14/12 Q1020 BECMG 18015G25KT 4000 -RA BKN012 OVC040 
LFRQ 220630Z AUTO 16002KT 9999 -DZ SCT025 BKN030 BKN036 13/11 Q1021 BECMG 18015G25KT 4000 -RA BKN012 OVC040 
LFRQ 220600Z AUTO 15003KT 9999 -RA NSC 13/11 Q1020 NOSIG
LFRQ 220530Z AUTO 15003KT 9999 -RA NSC 12/11 Q1021  
LFRQ 220500Z AUTO VRB03KT CAVOK 11/10 Q1021 
LFRQ 220430Z AUTO 09002KT CAVOK 11/10 Q1021 
LFRQ 220400Z AUTO 07002KT CAVOK 11/10 Q1022 
LFRQ 220330Z AUTO 10002KT CAVOK 11/10 Q1022 
LFRQ 220300Z AUTO 00000KT CAVOK 11/10 Q1023 
LFRQ 220230Z AUTO 00000KT CAVOK 11/10 Q1023 
LFRQ 220200Z AUTO 00000KT CAVOK 11/09 Q1023 
LFRQ 220130Z AUTO 09002KT CAVOK 10/09 Q1023 
LFRQ 220100Z AUTO 00000KT CAVOK 10/09 Q1023 
LFRQ 220030Z AUTO 23002KT CAVOK 10/08 Q1023 
LFRQ 220000Z AUTO 22002KT CAVOK 10/09 Q1023 
LFRQ 212330Z AUTO 25003KT CAVOK 10/08 Q1023 
LFRQ 212300Z AUTO 24003KT CAVOK 11/08 Q1024 
LFRQ 212230Z AUTO 24003KT CAVOK 11/09 Q1024 
LFRQ 212200Z AUTO 23002KT CAVOK 11/09 Q1024 
LFRQ 212130Z AUTO 25003KT CAVOK 12/09 Q1024 
LFRQ 212100Z AUTO 23003KT CAVOK 12/09 Q1023 NOSIG   
LFRQ 212030Z AUTO 24003KT CAVOK 11/09 Q1023 NOSIG   
LFRQ 212000Z AUTO 25002KT CAVOK 12/09 Q1023 NOSIG   
LFRQ 211930Z AUTO 23003KT CAVOK 12/09 Q1023 NOSIG   
LFRQ 211900Z AUTO 23002KT CAVOK 12/09 Q1023 NOSIG   
LFRQ 211830Z AUTO 27002KT 9999 FEW038 SCT230 13/09 Q1023 NOSIG  
LFRQ 211800Z AUTO 29004KT 9999 SCT035 SCT045 14/09 Q1022 NOSIG  
LFRQ 211730Z AUTO 28007KT 250V310 9999 BKN035 BKN046 BKN054 15/09 Q1022 NOSIG   
LFRQ 211700Z AUTO 27008KT 240V300 9999 SCT035 BKN044 BKN052 15/08 Q1021 NOSIG   
LFRQ 211630Z AUTO 30006KT 250V330 9999 FEW039 BKN058 BKN220 15/09 Q1021 NOSIG   
LFRQ 211600Z AUTO 29006KT 9999 FEW035 SCT048 BKN058 15/09 Q1021 NOSIG   
LFRQ 211530Z AUTO 30010KT 9999 FEW039 SCT060 15/08 Q1021 NOSIG  
LFRQ 211500Z AUTO 30010KT CAVOK 16/08 Q1021 NOSIG   
LFRQ 211430Z AUTO 28010KT 9999 BKN041 BKN047 BKN058 16/07 Q1021 NOSIG   
LFRQ 211400Z AUTO 30013KT 9999 SCT041 SCT056 17/09 Q1021 NOSIG  
LFRQ 211330Z AUTO 30010KT 270V330 9999 BKN043 BKN049 16/07 Q1021 NOSIG  
LFRQ 211300Z AUTO 30013KT CAVOK 17/07 Q1020 NOSIG   
LFRQ 211230Z AUTO 30012KT 260V320 9999 SCT044 SCT070 17/08 Q1020 NOSIG  
LFRQ 211200Z AUTO 29011KT 250V320 9999 BKN046 BKN060 BKN200 18/07 Q1020 NOSIG   
LFRQ 211130Z AUTO 28012KT 9999 FEW040 SCT047 18/07 Q1020 NOSIG  
LFRQ 211100Z AUTO 29011KT 260V330 9999 FEW041 SCT047 17/08 Q1019 NOSIG  
LFRQ 211030Z AUTO 31012KT 9999 FEW031 SCT042 BKN220 16/08 Q1019 NOSIG   
LFRQ 211000Z AUTO 28008KT 250V310 9999 BKN036 BKN046 BKN052 15/09 Q1019 NOSIG   
LFRQ 210930Z AUTO 30011KT 270V330 9999 SCT034 SCT043 BKN052 15/09 Q1018 NOSIG   
LFRQ 210900Z AUTO 26005KT 230V310 9999 FEW035 15/11 Q1018 NOSIG 
LFRQ 210830Z AUTO 24004KT 210V280 9999 FEW031 SCT038 BKN058 14/10 Q1017 NOSIG   
LFRQ 210800Z AUTO VRB03KT 9999 FEW035 BKN048 BKN054 14/10 Q1017 NOSIG   
LFRQ 210730Z AUTO 30003KT CAVOK 12/09 Q1016 NOSIG   
LFRQ 210700Z AUTO 29004KT CAVOK 12/09 Q1016 NOSIG